sensor_id;sensor_type;location;lat;lon;timestamp;pressure;altitude;pressure_sealevel;temperature;humidity
43147;BME280;28752;48.266;7.402;2023-03-20T00:01:39;99740.03;;;9.63;90.35
43147;BME280;28752;48.266;7.402;2023-03-20T00:04:08;99743.19;;;9.56;91.05
43147;BME280;28752;48.266;7.402;2023-03-20T00:06:34;99743.72;;;9.50;90.92
43147;BME280;28752;48.266;7.402;2023-03-20T00:08:59;99750.91;;;9.38;91.28
43147;BME280;28752;48.266;7.402;2023-03-20T00:14:08;99743.94;;;9.37;91.30
43147;BME280;28752;48.266;7.402;2023-03-20T00:16:45;99750.44;;;9.33;91.43
43147;BME280;28752;48.266;7.402;2023-03-20T00:19:22;99748.31;;;9.27;91.38
43147;BME280;28752;48.266;7.402;2023-03-20T00:21:48;99755.84;;;9.32;91.29
43147;BME280;28752;48.266;7.402;2023-03-20T00:24:14;99752.41;;;9.41;90.60
43147;BME280;28752;48.266;7.402;2023-03-20T00:26:41;99752.38;;;9.31;91.38
43147;BME280;28752;48.266;7.402;2023-03-20T00:29:09;99754.75;;;9.34;91.69
43147;BME280;28752;48.266;7.402;2023-03-20T00:31:40;99762.03;;;9.42;91.45
43147;BME280;28752;48.266;7.402;2023-03-20T00:34:13;99743.09;;;9.37;91.35
43147;BME280;28752;48.266;7.402;2023-03-20T00:36:39;99744.22;;;9.44;91.12
43147;BME280;28752;48.266;7.402;2023-03-20T00:39:06;99765.44;;;9.54;91.47
43147;BME280;28752;48.266;7.402;2023-03-20T00:46:50;99761.94;;;9.53;89.86
43147;BME280;28752;48.266;7.402;2023-03-20T00:49:19;99766.75;;;9.38;91.18
43147;BME280;28752;48.266;7.402;2023-03-20T00:51:46;99761.97;;;9.84;89.35
43147;BME280;28752;48.266;7.402;2023-03-20T00:54:14;99767.31;;;9.63;90.36
43147;BME280;28752;48.266;7.402;2023-03-20T00:56:47;99772.91;;;9.49;90.64
43147;BME280;28752;48.266;7.402;2023-03-20T00:59:18;99760.88;;;9.35;91.25
43147;BME280;28752;48.266;7.402;2023-03-20T01:01:45;99766.81;;;9.27;91.13
43147;BME280;28752;48.266;7.402;2023-03-20T01:04:13;99773.97;;;9.36;90.64
43147;BME280;28752;48.266;7.402;2023-03-20T01:06:39;99762.81;;;9.33;90.01
43147;BME280;28752;48.266;7.402;2023-03-20T01:09:05;99777.75;;;9.22;90.76
43147;BME280;28752;48.266;7.402;2023-03-20T01:11:31;99776.94;;;9.22;91.39
43147;BME280;28752;48.266;7.402;2023-03-20T01:13:57;99785.03;;;9.30;91.22
43147;BME280;28752;48.266;7.402;2023-03-20T01:16:25;99779.31;;;9.25;90.82
43147;BME280;28752;48.266;7.402;2023-03-20T01:18:51;99782.28;;;9.32;90.62
43147;BME280;28752;48.266;7.402;2023-03-20T01:21:17;99777.38;;;9.27;90.81
43147;BME280;28752;48.266;7.402;2023-03-20T01:23:43;99787.69;;;9.30;91.22
43147;BME280;28752;48.266;7.402;2023-03-20T01:28:46;99780.66;;;9.40;90.95
43147;BME280;28752;48.266;7.402;2023-03-20T01:31:14;99781.50;;;9.41;91.21
43147;BME280;28752;48.266;7.402;2023-03-20T01:33:40;99771.00;;;9.51;89.86
43147;BME280;28752;48.266;7.402;2023-03-20T01:36:09;99780.16;;;9.47;90.04
43147;BME280;28752;48.266;7.402;2023-03-20T01:38:36;99790.06;;;9.33;90.56
43147;BME280;28752;48.266;7.402;2023-03-20T01:41:05;99782.47;;;9.40;90.34
43147;BME280;28752;48.266;7.402;2023-03-20T01:43:32;99792.19;;;9.39;91.08
43147;BME280;28752;48.266;7.402;2023-03-20T01:46:03;99779.19;;;9.48;90.87
43147;BME280;28752;48.266;7.402;2023-03-20T01:53:49;99781.75;;;9.38;91.23
43147;BME280;28752;48.266;7.402;2023-03-20T01:56:16;99778.72;;;9.42;90.71
43147;BME280;28752;48.266;7.402;2023-03-20T01:58:47;99776.56;;;9.27;90.73
43147;BME280;28752;48.266;7.402;2023-03-20T02:01:14;99778.94;;;9.30;91.02
43147;BME280;28752;48.266;7.402;2023-03-20T02:03:43;99780.63;;;9.31;90.81
43147;BME280;28752;48.266;7.402;2023-03-20T02:06:10;99788.84;;;9.37;90.88
43147;BME280;28752;48.266;7.402;2023-03-20T02:08:41;99782.22;;;9.43;90.20
43147;BME280;28752;48.266;7.402;2023-03-20T02:11:09;99764.63;;;9.32;90.09
43147;BME280;28752;48.266;7.402;2023-03-20T02:13:36;99761.13;;;9.32;90.36
43147;BME280;28752;48.266;7.402;2023-03-20T02:16:05;99782.91;;;9.45;89.60
43147;BME280;28752;48.266;7.402;2023-03-20T02:18:32;99783.13;;;9.32;90.60
43147;BME280;28752;48.266;7.402;2023-03-20T02:24:58;99795.31;;;9.45;89.72
43147;BME280;28752;48.266;7.402;2023-03-20T02:33:56;99802.31;;;9.34;89.80
43147;BME280;28752;48.266;7.402;2023-03-20T02:41:42;99812.38;;;9.40;89.64
43147;BME280;28752;48.266;7.402;2023-03-20T02:44:31;99815.66;;;9.33;90.15
43147;BME280;28752;48.266;7.402;2023-03-20T02:47:00;99819.34;;;9.41;90.25
43147;BME280;28752;48.266;7.402;2023-03-20T02:55:13;99821.34;;;9.49;90.75
43147;BME280;28752;48.266;7.402;2023-03-20T03:00:27;99809.66;;;9.52;89.07
43147;BME280;28752;48.266;7.402;2023-03-20T03:03:11;99822.13;;;9.61;88.15
43147;BME280;28752;48.266;7.402;2023-03-20T03:08:21;99817.50;;;9.84;85.82
43147;BME280;28752;48.266;7.402;2023-03-20T03:10:52;99819.16;;;9.85;86.30
43147;BME280;28752;48.266;7.402;2023-03-20T03:13:24;99826.00;;;9.88;85.32
43147;BME280;28752;48.266;7.402;2023-03-20T03:15:53;99813.25;;;9.93;83.38
43147;BME280;28752;48.266;7.402;2023-03-20T03:18:22;99810.19;;;9.98;83.94
43147;BME280;28752;48.266;7.402;2023-03-20T03:20:55;99819.03;;;9.87;85.01
43147;BME280;28752;48.266;7.402;2023-03-20T03:23:29;99822.06;;;9.82;85.39
43147;BME280;28752;48.266;7.402;2023-03-20T03:25:56;99823.19;;;9.80;85.13
43147;BME280;28752;48.266;7.402;2023-03-20T03:28:34;99833.41;;;9.94;84.71
43147;BME280;28752;48.266;7.402;2023-03-20T03:31:06;99831.88;;;9.91;84.28
43147;BME280;28752;48.266;7.402;2023-03-20T03:33:34;99835.66;;;9.99;83.60
43147;BME280;28752;48.266;7.402;2023-03-20T03:36:35;99836.53;;;9.99;83.01
43147;BME280;28752;48.266;7.402;2023-03-20T03:42:10;99821.78;;;10.06;82.47
43147;BME280;28752;48.266;7.402;2023-03-20T03:47:46;99814.78;;;9.95;81.69
43147;BME280;28752;48.266;7.402;2023-03-20T03:50:20;99816.34;;;10.08;81.41
43147;BME280;28752;48.266;7.402;2023-03-20T03:52:51;99819.41;;;10.03;81.97
43147;BME280;28752;48.266;7.402;2023-03-20T03:55:21;99827.72;;;9.99;82.48
43147;BME280;28752;48.266;7.402;2023-03-20T03:58:03;99821.28;;;9.91;82.21
43147;BME280;28752;48.266;7.402;2023-03-20T04:00:32;99822.56;;;9.97;82.49
43147;BME280;28752;48.266;7.402;2023-03-20T04:02:58;99824.06;;;9.90;82.83
43147;BME280;28752;48.266;7.402;2023-03-20T04:05:27;99821.19;;;9.93;82.96
43147;BME280;28752;48.266;7.402;2023-03-20T04:07:57;99828.13;;;9.94;82.78
43147;BME280;28752;48.266;7.402;2023-03-20T04:10:23;99819.75;;;9.89;82.79
43147;BME280;28752;48.266;7.402;2023-03-20T04:12:49;99822.34;;;9.79;83.60
43147;BME280;28752;48.266;7.402;2023-03-20T04:15:15;99809.22;;;9.68;83.67
43147;BME280;28752;48.266;7.402;2023-03-20T04:17:41;99838.69;;;9.63;84.08
43147;BME280;28752;48.266;7.402;2023-03-20T04:20:07;99835.38;;;9.92;82.76
43147;BME280;28752;48.266;7.402;2023-03-20T04:22:33;99850.38;;;9.91;82.66
43147;BME280;28752;48.266;7.402;2023-03-20T04:25:03;99844.09;;;9.83;82.09
43147;BME280;28752;48.266;7.402;2023-03-20T04:27:29;99848.47;;;9.93;81.63
43147;BME280;28752;48.266;7.402;2023-03-20T04:29:54;99855.75;;;10.01;81.52
43147;BME280;28752;48.266;7.402;2023-03-20T04:32:20;99841.81;;;9.99;81.69
43147;BME280;28752;48.266;7.402;2023-03-20T04:34:46;99840.53;;;9.93;81.89
43147;BME280;28752;48.266;7.402;2023-03-20T04:37:12;99828.19;;;10.04;81.45
43147;BME280;28752;48.266;7.402;2023-03-20T04:39:37;99818.84;;;10.00;81.60
43147;BME280;28752;48.266;7.402;2023-03-20T04:42:04;99825.41;;;10.05;81.04
43147;BME280;28752;48.266;7.402;2023-03-20T04:44:30;99827.72;;;9.99;81.96
43147;BME280;28752;48.266;7.402;2023-03-20T04:46:55;99827.59;;;10.00;82.31
43147;BME280;28752;48.266;7.402;2023-03-20T04:49:21;99847.41;;;10.06;82.59
43147;BME280;28752;48.266;7.402;2023-03-20T04:51:46;99837.88;;;9.93;82.29
43147;BME280;28752;48.266;7.402;2023-03-20T04:54:11;99832.75;;;10.02;81.56
43147;BME280;28752;48.266;7.402;2023-03-20T04:56:37;99831.66;;;10.04;81.55
43147;BME280;28752;48.266;7.402;2023-03-20T04:59:02;99826.47;;;9.93;82.10
43147;BME280;28752;48.266;7.402;2023-03-20T05:01:28;99819.31;;;9.84;82.65
43147;BME280;28752;48.266;7.402;2023-03-20T05:03:53;99826.84;;;9.88;82.47
43147;BME280;28752;48.266;7.402;2023-03-20T05:06:27;99841.47;;;9.92;82.31
43147;BME280;28752;48.266;7.402;2023-03-20T05:08:54;99851.41;;;10.00;79.71
43147;BME280;28752;48.266;7.402;2023-03-20T05:11:19;99841.94;;;9.98;78.91
43147;BME280;28752;48.266;7.402;2023-03-20T05:13:45;99848.75;;;10.00;78.79
43147;BME280;28752;48.266;7.402;2023-03-20T05:16:10;99842.91;;;9.96;80.18
43147;BME280;28752;48.266;7.402;2023-03-20T05:18:36;99853.78;;;10.03;81.42
43147;BME280;28752;48.266;7.402;2023-03-20T05:21:01;99846.06;;;9.90;79.53
43147;BME280;28752;48.266;7.402;2023-03-20T05:23:27;99853.63;;;9.95;79.14
43147;BME280;28752;48.266;7.402;2023-03-20T05:25:52;99844.47;;;9.99;79.64
43147;BME280;28752;48.266;7.402;2023-03-20T05:28:17;99848.91;;;9.99;80.32
43147;BME280;28752;48.266;7.402;2023-03-20T05:30:43;99840.00;;;10.00;80.15
43147;BME280;28752;48.266;7.402;2023-03-20T05:33:08;99819.69;;;9.79;81.16
43147;BME280;28752;48.266;7.402;2023-03-20T05:35:33;99846.38;;;9.97;80.74
43147;BME280;28752;48.266;7.402;2023-03-20T05:37:59;99855.31;;;9.96;80.88
43147;BME280;28752;48.266;7.402;2023-03-20T05:40:24;99845.31;;;9.78;81.99
43147;BME280;28752;48.266;7.402;2023-03-20T05:42:53;99857.38;;;9.71;82.90
43147;BME280;28752;48.266;7.402;2023-03-20T05:45:18;99851.91;;;9.63;83.45
43147;BME280;28752;48.266;7.402;2023-03-20T05:47:44;99853.31;;;9.46;84.36
43147;BME280;28752;48.266;7.402;2023-03-20T05:50:10;99836.13;;;9.31;85.22
43147;BME280;28752;48.266;7.402;2023-03-20T05:52:35;99855.59;;;9.51;84.76
43147;BME280;28752;48.266;7.402;2023-03-20T05:55:01;99855.59;;;9.51;84.68
43147;BME280;28752;48.266;7.402;2023-03-20T05:57:26;99854.84;;;9.28;86.38
43147;BME280;28752;48.266;7.402;2023-03-20T05:59:52;99860.72;;;9.31;86.67
43147;BME280;28752;48.266;7.402;2023-03-20T06:02:17;99863.94;;;9.35;86.35
43147;BME280;28752;48.266;7.402;2023-03-20T06:04:43;99867.75;;;9.42;86.11
43147;BME280;28752;48.266;7.402;2023-03-20T06:07:08;99854.34;;;9.34;86.51
43147;BME280;28752;48.266;7.402;2023-03-20T06:09:33;99865.25;;;9.62;85.77
43147;BME280;28752;48.266;7.402;2023-03-20T06:11:59;99846.22;;;9.89;84.12
43147;BME280;28752;48.266;7.402;2023-03-20T06:14:24;99875.97;;;10.12;83.97
43147;BME280;28752;48.266;7.402;2023-03-20T06:16:50;99870.81;;;10.10;83.62
43147;BME280;28752;48.266;7.402;2023-03-20T06:19:18;99890.41;;;10.29;82.77
43147;BME280;28752;48.266;7.402;2023-03-20T06:21:43;99869.56;;;10.96;79.49
43147;BME280;28752;48.266;7.402;2023-03-20T06:24:09;99872.94;;;11.66;75.98
43147;BME280;28752;48.266;7.402;2023-03-20T06:26:34;99888.25;;;12.67;71.36
43147;BME280;28752;48.266;7.402;2023-03-20T06:29:00;99890.75;;;13.32;68.74
43147;BME280;28752;48.266;7.402;2023-03-20T06:31:25;99891.06;;;13.47;67.94
43147;BME280;28752;48.266;7.402;2023-03-20T06:33:51;99890.97;;;13.57;67.51
43147;BME280;28752;48.266;7.402;2023-03-20T06:36:16;99882.00;;;13.22;67.84
43147;BME280;28752;48.266;7.402;2023-03-20T06:38:42;99891.72;;;12.40;69.78
43147;BME280;28752;48.266;7.402;2023-03-20T06:41:07;99908.16;;;12.16;70.70
43147;BME280;28752;48.266;7.402;2023-03-20T06:43:33;99910.03;;;11.96;72.83
43147;BME280;28752;48.266;7.402;2023-03-20T06:45:58;99911.72;;;11.67;73.64
43147;BME280;28752;48.266;7.402;2023-03-20T06:48:24;99917.88;;;11.48;74.81
43147;BME280;28752;48.266;7.402;2023-03-20T06:50:50;99917.88;;;11.19;75.51
43147;BME280;28752;48.266;7.402;2023-03-20T06:53:15;99923.69;;;11.03;76.77
43147;BME280;28752;48.266;7.402;2023-03-20T06:55:42;99927.44;;;11.00;77.50
43147;BME280;28752;48.266;7.402;2023-03-20T06:58:07;99924.06;;;10.79;76.87
43147;BME280;28752;48.266;7.402;2023-03-20T07:00:33;99926.97;;;10.66;77.73
43147;BME280;28752;48.266;7.402;2023-03-20T07:02:58;99926.97;;;10.76;77.51
43147;BME280;28752;48.266;7.402;2023-03-20T07:05:24;99938.16;;;10.89;76.59
43147;BME280;28752;48.266;7.402;2023-03-20T07:07:50;99928.06;;;10.63;76.93
43147;BME280;28752;48.266;7.402;2023-03-20T07:10:16;99924.38;;;10.95;76.08
43147;BME280;28752;48.266;7.402;2023-03-20T07:12:41;99934.75;;;11.37;74.62
43147;BME280;28752;48.266;7.402;2023-03-20T07:15:08;99923.31;;;11.47;73.52
43147;BME280;28752;48.266;7.402;2023-03-20T07:17:35;99922.91;;;11.71;72.63
43147;BME280;28752;48.266;7.402;2023-03-20T07:20:02;99926.78;;;12.06;71.26
43147;BME280;28752;48.266;7.402;2023-03-20T07:22:29;99913.31;;;13.10;67.38
43147;BME280;28752;48.266;7.402;2023-03-20T07:24:56;99910.69;;;13.01;66.30
43147;BME280;28752;48.266;7.402;2023-03-20T07:27:22;99907.94;;;12.37;67.41
43147;BME280;28752;48.266;7.402;2023-03-20T07:29:48;99911.81;;;12.52;67.21
43147;BME280;28752;48.266;7.402;2023-03-20T07:32:13;99915.84;;;12.84;65.26
43147;BME280;28752;48.266;7.402;2023-03-20T07:34:39;99903.06;;;13.15;65.22
43147;BME280;28752;48.266;7.402;2023-03-20T07:37:05;99901.63;;;14.01;61.32
43147;BME280;28752;48.266;7.402;2023-03-20T07:39:31;99894.97;;;14.66;59.74
43147;BME280;28752;48.266;7.402;2023-03-20T07:41:56;99885.69;;;14.70;58.06
43147;BME280;28752;48.266;7.402;2023-03-20T07:44:22;99901.78;;;14.00;59.62
43147;BME280;28752;48.266;7.402;2023-03-20T07:46:47;99901.75;;;13.02;62.30
43147;BME280;28752;48.266;7.402;2023-03-20T07:49:13;99893.00;;;12.91;63.59
43147;BME280;28752;48.266;7.402;2023-03-20T07:51:39;99907.28;;;13.36;63.28
43147;BME280;28752;48.266;7.402;2023-03-20T07:54:04;99900.50;;;13.42;62.78
43147;BME280;28752;48.266;7.402;2023-03-20T07:56:30;99898.53;;;13.44;62.45
43147;BME280;28752;48.266;7.402;2023-03-20T07:58:56;99882.16;;;13.57;62.44
43147;BME280;28752;48.266;7.402;2023-03-20T08:01:21;99895.72;;;13.90;61.39
43147;BME280;28752;48.266;7.402;2023-03-20T08:03:47;99894.47;;;14.02;61.22
43147;BME280;28752;48.266;7.402;2023-03-20T08:06:12;99896.84;;;14.13;61.03
43147;BME280;28752;48.266;7.402;2023-03-20T08:08:37;99908.47;;;14.30;60.37
43147;BME280;28752;48.266;7.402;2023-03-20T08:11:03;99905.84;;;14.38;58.88
43147;BME280;28752;48.266;7.402;2023-03-20T08:13:28;99895.31;;;14.63;59.37
43147;BME280;28752;48.266;7.402;2023-03-20T08:15:53;99905.69;;;14.74;57.25
43147;BME280;28752;48.266;7.402;2023-03-20T08:18:19;99899.88;;;14.79;58.25
43147;BME280;28752;48.266;7.402;2023-03-20T08:20:46;99887.03;;;14.48;57.16
43147;BME280;28752;48.266;7.402;2023-03-20T08:23:12;99901.03;;;14.85;57.42
43147;BME280;28752;48.266;7.402;2023-03-20T08:25:37;99900.69;;;14.71;56.56
43147;BME280;28752;48.266;7.402;2023-03-20T08:28:03;99900.69;;;14.71;56.93
43147;BME280;28752;48.266;7.402;2023-03-20T08:30:28;99902.25;;;14.99;56.79
43147;BME280;28752;48.266;7.402;2023-03-20T08:32:54;99900.22;;;14.84;53.42
43147;BME280;28752;48.266;7.402;2023-03-20T08:35:22;99901.69;;;14.79;53.60
43147;BME280;28752;48.266;7.402;2023-03-20T08:37:47;99907.16;;;15.20;55.42
43147;BME280;28752;48.266;7.402;2023-03-20T08:40:13;99907.16;;;15.69;55.36
43147;BME280;28752;48.266;7.402;2023-03-20T08:42:38;99902.00;;;15.68;55.41
43147;BME280;28752;48.266;7.402;2023-03-20T08:45:04;99889.81;;;15.49;52.54
43147;BME280;28752;48.266;7.402;2023-03-20T08:47:29;99908.00;;;15.45;52.25
43147;BME280;28752;48.266;7.402;2023-03-20T08:49:55;99913.16;;;15.46;53.72
43147;BME280;28752;48.266;7.402;2023-03-20T08:52:21;99921.66;;;15.42;53.22
43147;BME280;28752;48.266;7.402;2023-03-20T08:54:46;99919.34;;;15.63;54.05
43147;BME280;28752;48.266;7.402;2023-03-20T08:57:12;99916.66;;;15.47;52.56
43147;BME280;28752;48.266;7.402;2023-03-20T08:59:37;99919.81;;;15.26;53.79
43147;BME280;28752;48.266;7.402;2023-03-20T09:02:02;99918.22;;;14.82;55.93
43147;BME280;28752;48.266;7.402;2023-03-20T09:04:28;99911.28;;;14.63;55.31
43147;BME280;28752;48.266;7.402;2023-03-20T09:06:53;99927.31;;;14.37;55.41
43147;BME280;28752;48.266;7.402;2023-03-20T09:09:19;99931.22;;;14.25;57.05
43147;BME280;28752;48.266;7.402;2023-03-20T09:11:50;99944.19;;;14.54;56.46
43147;BME280;28752;48.266;7.402;2023-03-20T09:14:16;99929.28;;;14.61;55.89
43147;BME280;28752;48.266;7.402;2023-03-20T09:16:42;99929.28;;;14.61;56.12
43147;BME280;28752;48.266;7.402;2023-03-20T09:19:07;99933.97;;;14.67;55.28
43147;BME280;28752;48.266;7.402;2023-03-20T09:21:33;99935.16;;;14.47;54.92
43147;BME280;28752;48.266;7.402;2023-03-20T09:23:58;99947.94;;;14.61;56.29
43147;BME280;28752;48.266;7.402;2023-03-20T09:26:23;99933.78;;;14.61;54.43
43147;BME280;28752;48.266;7.402;2023-03-20T09:28:49;99946.69;;;14.82;54.43
43147;BME280;28752;48.266;7.402;2023-03-20T09:31:14;99942.06;;;14.31;54.13
43147;BME280;28752;48.266;7.402;2023-03-20T09:33:40;99956.84;;;14.52;54.93
43147;BME280;28752;48.266;7.402;2023-03-20T09:36:05;99952.84;;;14.56;54.32
43147;BME280;28752;48.266;7.402;2023-03-20T09:38:32;99939.16;;;14.77;53.31
43147;BME280;28752;48.266;7.402;2023-03-20T09:40:59;99950.59;;;15.12;54.14
43147;BME280;28752;48.266;7.402;2023-03-20T09:43:47;99949.41;;;14.98;52.88
43147;BME280;28752;48.266;7.402;2023-03-20T09:51:37;99951.69;;;15.36;52.98
43147;BME280;28752;48.266;7.402;2023-03-20T09:54:38;99947.66;;;15.23;53.04
43147;BME280;28752;48.266;7.402;2023-03-20T09:57:05;99960.94;;;15.15;52.29
43147;BME280;28752;48.266;7.402;2023-03-20T09:59:36;99957.72;;;14.87;52.00
43147;BME280;28752;48.266;7.402;2023-03-20T10:02:14;99962.75;;;14.98;53.39
43147;BME280;28752;48.266;7.402;2023-03-20T10:04:42;99956.72;;;14.88;51.05
43147;BME280;28752;48.266;7.402;2023-03-20T10:07:16;99966.81;;;15.19;51.19
43147;BME280;28752;48.266;7.402;2023-03-20T10:09:42;99967.22;;;14.89;53.02
43147;BME280;28752;48.266;7.402;2023-03-20T10:15:16;99961.50;;;14.76;49.64
43147;BME280;28752;48.266;7.402;2023-03-20T10:25:31;99961.09;;;15.05;50.25
43147;BME280;28752;48.266;7.402;2023-03-20T10:28:00;99958.81;;;15.27;49.45
43147;BME280;28752;48.266;7.402;2023-03-20T10:41:32;99954.06;;;15.96;47.14
43147;BME280;28752;48.266;7.402;2023-03-20T10:43:59;99957.75;;;15.95;49.43
43147;BME280;28752;48.266;7.402;2023-03-20T10:46:30;99949.91;;;15.86;48.66
43147;BME280;28752;48.266;7.402;2023-03-20T10:49:08;99946.06;;;15.80;47.53
43147;BME280;28752;48.266;7.402;2023-03-20T10:51:44;99952.03;;;15.49;47.34
43147;BME280;28752;48.266;7.402;2023-03-20T10:54:23;99953.91;;;15.90;48.22
43147;BME280;28752;48.266;7.402;2023-03-20T10:56:53;99949.06;;;16.02;48.08
43147;BME280;28752;48.266;7.402;2023-03-20T10:59:29;99948.41;;;15.91;47.24
43147;BME280;28752;48.266;7.402;2023-03-20T11:01:57;99939.00;;;16.28;46.96
43147;BME280;28752;48.266;7.402;2023-03-20T11:04:22;99933.00;;;16.26;47.14
43147;BME280;28752;48.266;7.402;2023-03-20T11:07:02;99939.50;;;16.24;46.92
43147;BME280;28752;48.266;7.402;2023-03-20T11:09:31;99933.28;;;16.40;47.15
43147;BME280;28752;48.266;7.402;2023-03-20T11:11:58;99927.16;;;16.23;47.69
43147;BME280;28752;48.266;7.402;2023-03-20T11:14:31;99932.63;;;16.38;49.11
43147;BME280;28752;48.266;7.402;2023-03-20T11:17:00;99935.28;;;16.46;48.66
43147;BME280;28752;48.266;7.402;2023-03-20T11:19:26;99936.97;;;16.39;48.00
43147;BME280;28752;48.266;7.402;2023-03-20T11:21:57;99937.16;;;16.29;48.01
43147;BME280;28752;48.266;7.402;2023-03-20T11:24:45;99934.69;;;16.03;47.07
43147;BME280;28752;48.266;7.402;2023-03-20T11:27:16;99942.72;;;16.03;46.82
43147;BME280;28752;48.266;7.402;2023-03-20T11:29:46;99945.84;;;16.31;47.33
43147;BME280;28752;48.266;7.402;2023-03-20T11:34:54;99939.38;;;16.09;46.69
43147;BME280;28752;48.266;7.402;2023-03-20T11:37:32;99928.28;;;16.37;46.29
43147;BME280;28752;48.266;7.402;2023-03-20T11:45:17;99926.66;;;16.75;46.53
43147;BME280;28752;48.266;7.402;2023-03-20T11:47:48;99922.63;;;16.79;47.33
43147;BME280;28752;48.266;7.402;2023-03-20T11:50:30;99931.00;;;16.76;47.73
43147;BME280;28752;48.266;7.402;2023-03-20T11:52:57;99922.75;;;16.86;46.80
43147;BME280;28752;48.266;7.402;2023-03-20T11:55:31;99926.09;;;16.96;46.11
43147;BME280;28752;48.266;7.402;2023-03-20T11:58:02;99920.19;;;16.61;46.59
43147;BME280;28752;48.266;7.402;2023-03-20T12:00:35;99910.56;;;16.44;47.39
43147;BME280;28752;48.266;7.402;2023-03-20T12:03:02;99918.13;;;16.24;48.03
43147;BME280;28752;48.266;7.402;2023-03-20T12:05:36;99910.00;;;16.01;48.46
43147;BME280;28752;48.266;7.402;2023-03-20T12:08:10;99919.16;;;16.14;48.14
43147;BME280;28752;48.266;7.402;2023-03-20T12:10:41;99908.97;;;16.18;48.40
43147;BME280;28752;48.266;7.402;2023-03-20T12:13:22;99910.09;;;16.40;49.30
43147;BME280;28752;48.266;7.402;2023-03-20T12:16:00;99903.28;;;16.69;48.00
43147;BME280;28752;48.266;7.402;2023-03-20T12:18:46;99899.28;;;17.04;47.74
43147;BME280;28752;48.266;7.402;2023-03-20T12:23:48;99890.44;;;17.04;45.38
43147;BME280;28752;48.266;7.402;2023-03-20T12:26:31;99889.16;;;16.92;43.68
43147;BME280;28752;48.266;7.402;2023-03-20T12:29:01;99890.81;;;16.93;45.46
43147;BME280;28752;48.266;7.402;2023-03-20T12:31:35;99884.16;;;16.80;45.66
43147;BME280;28752;48.266;7.402;2023-03-20T12:34:09;99882.88;;;16.76;45.11
43147;BME280;28752;48.266;7.402;2023-03-20T12:36:38;99880.81;;;16.86;45.78
43147;BME280;28752;48.266;7.402;2023-03-20T12:39:10;99863.31;;;16.44;46.72
43147;BME280;28752;48.266;7.402;2023-03-20T12:50:32;99870.31;;;16.45;47.18
43147;BME280;28752;48.266;7.402;2023-03-20T12:55:59;99859.66;;;16.37;46.93
43147;BME280;28752;48.266;7.402;2023-03-20T12:58:36;99865.75;;;16.54;46.45
43147;BME280;28752;48.266;7.402;2023-03-20T13:01:05;99866.81;;;16.45;43.66
43147;BME280;28752;48.266;7.402;2023-03-20T13:09:25;99855.53;;;16.26;44.66
43147;BME280;28752;48.266;7.402;2023-03-20T13:12:14;99845.44;;;16.45;46.01
43147;BME280;28752;48.266;7.402;2023-03-20T13:41:52;99808.94;;;16.92;42.96
43147;BME280;28752;48.266;7.402;2023-03-20T13:44:19;99807.66;;;16.79;43.30
43147;BME280;28752;48.266;7.402;2023-03-20T13:47:02;99799.75;;;16.55;42.82
43147;BME280;28752;48.266;7.402;2023-03-20T13:49:38;99807.00;;;16.46;43.62
43147;BME280;28752;48.266;7.402;2023-03-20T13:52:15;99792.88;;;16.29;44.47
43147;BME280;28752;48.266;7.402;2023-03-20T14:00:30;99806.44;;;16.59;44.45
43147;BME280;28752;48.266;7.402;2023-03-20T14:03:16;99809.84;;;16.44;44.46
43147;BME280;28752;48.266;7.402;2023-03-20T14:05:44;99808.47;;;16.48;44.64
43147;BME280;28752;48.266;7.402;2023-03-20T14:13:52;99796.09;;;16.56;43.88
43147;BME280;28752;48.266;7.402;2023-03-20T14:16:19;99803.16;;;16.72;44.18
43147;BME280;28752;48.266;7.402;2023-03-20T14:19:03;99805.19;;;16.69;46.27
43147;BME280;28752;48.266;7.402;2023-03-20T14:21:33;99808.47;;;16.80;43.51
43147;BME280;28752;48.266;7.402;2023-03-20T14:24:03;99797.81;;;16.72;45.09
43147;BME280;28752;48.266;7.402;2023-03-20T14:26:34;99798.50;;;16.42;46.40
43147;BME280;28752;48.266;7.402;2023-03-20T14:31:33;99804.94;;;16.56;46.20
43147;BME280;28752;48.266;7.402;2023-03-20T14:37:01;99805.81;;;16.17;45.38
43147;BME280;28752;48.266;7.402;2023-03-20T14:39:49;99803.31;;;16.07;45.65
43147;BME280;28752;48.266;7.402;2023-03-20T14:48:24;99787.28;;;16.70;45.64
43147;BME280;28752;48.266;7.402;2023-03-20T14:53:21;99786.50;;;16.93;44.31
43147;BME280;28752;48.266;7.402;2023-03-20T15:01:23;99779.09;;;17.03;45.13
43147;BME280;28752;48.266;7.402;2023-03-20T15:03:56;99789.00;;;16.94;44.88
43147;BME280;28752;48.266;7.402;2023-03-20T15:06:26;99778.00;;;16.66;43.68
43147;BME280;28752;48.266;7.402;2023-03-20T15:08:55;99795.19;;;16.32;44.87
43147;BME280;28752;48.266;7.402;2023-03-20T15:11:22;99784.41;;;16.57;44.42
43147;BME280;28752;48.266;7.402;2023-03-20T15:13:49;99784.69;;;16.62;44.05
43147;BME280;28752;48.266;7.402;2023-03-20T15:16:16;99781.91;;;16.78;45.48
43147;BME280;28752;48.266;7.402;2023-03-20T15:18:49;99784.38;;;16.88;44.76
43147;BME280;28752;48.266;7.402;2023-03-20T15:21:17;99774.28;;;16.98;45.47
43147;BME280;28752;48.266;7.402;2023-03-20T15:23:45;99784.50;;;16.95;44.31
43147;BME280;28752;48.266;7.402;2023-03-20T15:26:13;99778.22;;;17.26;44.00
43147;BME280;28752;48.266;7.402;2023-03-20T15:28:39;99775.63;;;17.17;44.91
43147;BME280;28752;48.266;7.402;2023-03-20T15:31:05;99767.47;;;17.11;43.94
43147;BME280;28752;48.266;7.402;2023-03-20T15:33:38;99773.31;;;16.91;44.96
43147;BME280;28752;48.266;7.402;2023-03-20T15:36:13;99762.72;;;16.75;44.97
43147;BME280;28752;48.266;7.402;2023-03-20T15:38:40;99773.06;;;16.78;44.31
43147;BME280;28752;48.266;7.402;2023-03-20T15:41:23;99763.22;;;16.47;44.98
43147;BME280;28752;48.266;7.402;2023-03-20T15:43:50;99771.31;;;16.62;45.38
43147;BME280;28752;48.266;7.402;2023-03-20T15:46:15;99767.09;;;16.44;44.69
43147;BME280;28752;48.266;7.402;2023-03-20T15:48:46;99776.59;;;16.15;45.52
43147;BME280;28752;48.266;7.402;2023-03-20T15:51:11;99762.78;;;16.35;46.92
43147;BME280;28752;48.266;7.402;2023-03-20T15:53:38;99762.47;;;16.30;47.65
43147;BME280;28752;48.266;7.402;2023-03-20T15:58:30;99758.28;;;16.36;47.59